Time;durP1;ratioP1;P1;durP2;ratioP2;P2;SDS_P1;SDS_P2;PMS_P1;PMS_P2;Temp;Humidity;BMP_temperature;BMP_pressure;BME280_temperature;BME280_humidity;BME280_pressure;Samples;Min_cycle;Max_cycle;Signal;HPM_P1;HPM_P2
2023/09/22 00:01:02;;;;;;;7.67;1.33;;;21.80;99.90;;;;;;4975412;28;20538;-67
2023/09/22 00:03:30;;;;;;;6.20;1.40;;;22.50;99.90;;;;;;4974953;28;20659;-68
2023/09/22 00:05:57;;;;;;;5.23;1.10;;;23.20;99.90;;;;;;4974694;28;20186;-68
2023/09/22 00:08:24;;;;;;;7.50;1.67;;;23.70;99.90;;;;;;4974958;28;20180;-67
2023/09/22 00:10:52;;;;;;;3.27;1.53;;;24.40;94.30;;;;;;4974822;28;20172;-68
2023/09/22 00:13:19;;;;;;;4.03;1.20;;;24.70;90.50;;;;;;4965943;28;20231;-67
2023/09/22 00:15:46;;;;;;;5.90;1.77;;;25.00;89.80;;;;;;4966221;28;20198;-68
2023/09/22 00:18:14;;;;;;;3.83;1.30;;;25.20;82.10;;;;;;4970996;28;20179;-68
2023/09/22 00:20:41;;;;;;;8.37;1.80;;;25.50;79.60;;;;;;4967937;28;20250;-67
2023/09/22 00:23:09;;;;;;;5.13;1.03;;;24.80;70.90;;;;;;4974586;28;20231;-68
2023/09/22 00:25:36;;;;;;;3.17;1.07;;;24.60;70.50;;;;;;4973852;28;20186;-68
2023/09/22 00:28:04;;;;;;;4.93;1.23;;;25.20;68.20;;;;;;4973899;28;20175;-68
2023/09/22 00:31:19;;;;;;;4.80;1.30;;;25.70;65.20;;;;;;4974696;28;20182;-69
2023/09/22 00:33:47;;;;;;;4.33;1.00;;;25.40;68.60;;;;;;4954265;29;20547;-69
2023/09/22 00:36:14;;;;;;;4.27;1.30;;;25.50;62.90;;;;;;4972856;28;20676;-69
2023/09/22 00:38:42;;;;;;;5.03;1.33;;;25.50;55.40;;;;;;4974762;28;20288;-70
2023/09/22 00:41:09;;;;;;;6.03;1.47;;;25.20;60.30;;;;;;4974468;28;20214;-68
2023/09/22 00:43:36;;;;;;;4.57;1.17;;;24.80;64.40;;;;;;4974183;28;20191;-69
2023/09/22 00:46:04;;;;;;;6.03;1.10;;;24.90;60.40;;;;;;4956997;28;20534;-68
2023/09/22 00:48:36;;;;;;;5.40;1.00;;;25.30;60.90;;;;;;4974111;28;20179;-70
2023/09/22 00:51:04;;;;;;;4.57;0.90;;;24.30;65.60;;;;;;4974757;28;20194;-69
2023/09/22 00:53:34;;;;;;;11.07;1.63;;;22.60;75.10;;;;;;4974037;28;20215;-68
2023/09/22 00:56:02;;;;;;;6.73;1.30;;;21.30;84.40;;;;;;4954795;29;20180;-69
2023/09/22 00:58:30;;;;;;;6.50;1.37;;;21.10;87.40;;;;;;4962270;28;20604;-69
2023/09/22 01:00:58;;;;;;;3.13;1.50;;;22.00;91.60;;;;;;4971330;28;20655;-68
2023/09/22 01:03:26;;;;;;;7.33;1.40;;;23.00;90.80;;;;;;4964484;28;20188;-69
2023/09/22 01:05:54;;;;;;;5.67;1.27;;;23.70;89.20;;;;;;4957848;28;20270;-68
2023/09/22 01:08:21;;;;;;;7.20;1.60;;;24.10;79.70;;;;;;4937839;29;20175;-69
2023/09/22 01:10:48;;;;;;;6.93;1.03;;;25.00;73.90;;;;;;4971192;28;20184;-69
2023/09/22 01:13:16;;;;;;;5.87;1.47;;;24.80;77.90;;;;;;4973499;28;20234;-69
2023/09/22 01:15:43;;;;;;;6.73;1.23;;;25.00;77.50;;;;;;4956606;28;20184;-69
2023/09/22 01:18:13;;;;;;;5.90;1.10;;;25.70;63.90;;;;;;4973095;28;20189;-69
2023/09/22 01:20:42;;;;;;;5.90;1.07;;;25.00;62.00;;;;;;4956515;28;20239;-68
2023/09/22 01:23:12;;;;;;;4.23;1.10;;;22.80;59.50;;;;;;4970440;28;20211;-68
2023/09/22 01:25:43;;;;;;;5.67;1.20;;;21.90;69.00;;;;;;4962950;28;20183;-69
2023/09/22 01:28:11;;;;;;;4.57;1.67;;;21.60;74.90;;;;;;4959547;28;20191;-69
2023/09/22 01:30:42;;;;;;;7.63;1.20;;;21.70;80.90;;;;;;4954433;29;20176;-69
2023/09/22 01:33:10;;;;;;;3.77;1.13;;;23.00;75.50;;;;;;4965858;28;20187;-69
2023/09/22 01:35:37;;;;;;;4.20;1.50;;;23.40;76.10;;;;;;4973046;28;20190;-69
2023/09/22 01:38:19;;;;;;;11.20;1.10;;;24.70;67.90;;;;;;4972560;28;20187;-68
2023/09/22 01:40:47;;;;;;;4.17;1.10;;;25.60;63.80;;;;;;4972551;28;20185;-68
2023/09/22 01:43:14;;;;;;;2.07;0.90;;;24.50;59.00;;;;;;4973029;28;20215;-69
2023/09/22 01:45:41;;;;;;;9.63;1.23;;;23.30;62.70;;;;;;4972403;28;20186;-68
2023/09/22 01:48:09;;;;;;;5.00;1.30;;;22.70;69.70;;;;;;4973287;28;20539;-69
2023/09/22 01:50:39;;;;;;;3.60;1.07;;;22.20;75.80;;;;;;4972880;28;20221;-69
2023/09/22 01:53:09;;;;;;;2.70;1.10;;;22.10;78.60;;;;;;4972669;28;20247;-68
2023/09/22 01:55:38;;;;;;;2.87;0.83;;;21.70;82.90;;;;;;4972876;28;20179;-68
2023/09/22 01:58:06;;;;;;;4.27;0.90;;;21.90;87.70;;;;;;4973363;28;20180;-69
2023/09/22 02:00:33;;;;;;;3.73;0.90;;;22.90;84.50;;;;;;4972680;28;20186;-68
2023/09/22 02:03:02;;;;;;;3.27;0.80;;;23.40;77.50;;;;;;4973132;28;20209;-68
2023/09/22 02:05:32;;;;;;;4.03;1.10;;;23.10;72.40;;;;;;4966381;28;20234;-69
2023/09/22 02:08:00;;;;;;;3.07;1.00;;;22.60;70.70;;;;;;4953318;29;20242;-69
2023/09/22 02:10:27;;;;;;;3.43;0.90;;;22.30;72.90;;;;;;4953755;29;20305;-69
2023/09/22 02:12:55;;;;;;;2.73;1.00;;;22.20;77.60;;;;;;4968973;28;20199;-68
2023/09/22 02:15:22;;;;;;;3.50;1.13;;;22.00;77.50;;;;;;4972263;28;20197;-70
2023/09/22 02:17:49;;;;;;;2.37;1.00;;;22.80;82.30;;;;;;4973006;28;20206;-69
2023/09/22 02:22:47;;;;;;;4.00;0.90;;;23.10;65.80;;;;;;4972781;28;20225;-67
2023/09/22 02:25:15;;;;;;;3.33;1.00;;;22.10;70.10;;;;;;4952005;28;20196;-66
2023/09/22 02:27:44;;;;;;;4.70;1.10;;;21.40;70.10;;;;;;4972708;28;20270;-68
2023/09/22 02:30:11;;;;;;;4.23;1.23;;;21.00;75.40;;;;;;4955323;28;20183;-70
2023/09/22 02:32:41;;;;;;;7.00;1.13;;;20.80;79.50;;;;;;4972398;28;20564;-69
2023/09/22 02:35:09;;;;;;;7.13;1.40;;;20.60;85.60;;;;;;4972972;28;20178;-68
2023/09/22 02:37:37;;;;;;;4.93;1.10;;;21.00;89.60;;;;;;4972732;28;20190;-69
2023/09/22 02:40:05;;;;;;;6.23;1.30;;;21.90;90.80;;;;;;4972387;28;20695;-69
2023/09/22 02:42:32;;;;;;;2.87;1.10;;;21.70;83.40;;;;;;4972606;28;20207;-68
2023/09/22 02:45:00;;;;;;;8.93;1.60;;;21.60;83.70;;;;;;4972779;28;20218;-69
2023/09/22 02:47:28;;;;;;;5.47;1.60;;;21.40;86.40;;;;;;4972051;28;20199;-70
2023/09/22 02:49:56;;;;;;;4.77;1.10;;;21.60;86.90;;;;;;4973579;28;20672;-69
2023/09/22 02:52:24;;;;;;;4.10;1.17;;;22.40;90.10;;;;;;4976320;28;20270;-70
2023/09/22 02:54:54;;;;;;;7.70;1.27;;;22.30;80.40;;;;;;4975973;28;20237;-70
2023/09/22 02:57:22;;;;;;;6.27;1.20;;;21.80;75.90;;;;;;4976257;28;20277;-69
2023/09/22 02:59:55;;;;;;;5.73;1.60;;;21.00;83.90;;;;;;4959161;28;20530;-70
2023/09/22 03:02:23;;;;;;;4.70;1.10;;;20.70;87.20;;;;;;4975999;28;20219;-70
2023/09/22 03:04:50;;;;;;;4.30;1.40;;;20.40;90.80;;;;;;4976467;28;20187;-69
2023/09/22 03:07:18;;;;;;;6.23;1.40;;;20.50;91.60;;;;;;4976174;28;20699;-69
2023/09/22 03:09:45;;;;;;;7.77;1.30;;;20.20;92.40;;;;;;4958528;28;20186;-71
2023/09/22 03:12:13;;;;;;;4.53;1.03;;;20.60;94.70;;;;;;4976068;28;20187;-70
2023/09/22 03:14:40;;;;;;;10.43;1.40;;;21.30;94.50;;;;;;4975371;28;20219;-69
2023/09/22 03:17:09;;;;;;;4.30;1.33;;;21.40;90.60;;;;;;4975355;28;20226;-71
2023/09/22 03:19:37;;;;;;;5.60;1.40;;;21.20;91.20;;;;;;4976204;28;20175;-70
2023/09/22 03:22:04;;;;;;;5.40;1.47;;;20.90;94.60;;;;;;4975680;28;20214;-70
2023/09/22 03:24:32;;;;;;;11.73;1.47;;;20.50;96.30;;;;;;4975491;28;20276;-70
2023/09/22 03:27:00;;;;;;;7.70;1.30;;;20.30;97.70;;;;;;4975730;28;20205;-68
2023/09/22 03:29:27;;;;;;;6.20;1.50;;;20.00;96.90;;;;;;4975781;28;20184;-69
2023/09/22 03:31:55;;;;;;;6.40;1.70;;;19.80;98.10;;;;;;4975324;28;20186;-68
2023/09/22 03:34:23;;;;;;;9.23;1.63;;;20.70;97.50;;;;;;4975830;28;20190;-69
2023/09/22 03:36:50;;;;;;;3.63;1.37;;;21.40;94.10;;;;;;4975711;28;20270;-69
2023/09/22 03:39:21;;;;;;;4.00;1.03;;;21.90;94.20;;;;;;4975240;28;20195;-68
2023/09/22 03:41:52;;;;;;;4.97;1.10;;;22.30;91.60;;;;;;4975737;28;20258;-69
2023/09/22 03:44:23;;;;;;;6.60;1.10;;;23.10;88.60;;;;;;4976102;28;20595;-69
2023/09/22 03:46:50;;;;;;;3.30;1.27;;;23.30;81.40;;;;;;4975075;28;20701;-69
2023/09/22 03:49:18;;;;;;;7.77;1.30;;;22.90;80.20;;;;;;4975110;28;20191;-69
2023/09/22 03:51:45;;;;;;;7.03;1.17;;;22.30;90.70;;;;;;4975419;28;20601;-70
2023/09/22 03:54:13;;;;;;;3.30;1.10;;;21.70;91.00;;;;;;4974991;28;20708;-68
2023/09/22 03:56:40;;;;;;;9.17;1.50;;;21.50;94.10;;;;;;4975579;28;20175;-68
2023/09/22 03:59:09;;;;;;;7.70;1.17;;;20.90;91.50;;;;;;4975001;28;20223;-69
2023/09/22 04:01:37;;;;;;;7.27;1.13;;;20.70;94.80;;;;;;4974598;28;20223;-68
2023/09/22 04:04:05;;;;;;;7.80;1.53;;;20.50;95.70;;;;;;4975124;28;20218;-68
2023/09/22 04:06:33;;;;;;;4.37;1.40;;;20.30;96.30;;;;;;4975417;28;20191;-68
2023/09/22 04:09:07;;;;;;;6.40;1.13;;;20.50;97.80;;;;;;4974571;28;20186;-68
2023/09/22 04:11:35;;;;;;;4.67;1.30;;;20.70;97.50;;;;;;4975156;28;20182;-69
2023/09/22 04:14:03;;;;;;;4.87;1.20;;;20.80;96.20;;;;;;4974755;28;20799;-68
2023/09/22 04:16:30;;;;;;;5.80;1.40;;;21.00;94.80;;;;;;4973623;28;20563;-69
2023/09/22 04:18:58;;;;;;;4.80;1.47;;;21.70;96.30;;;;;;4974692;28;20187;-70
2023/09/22 04:21:25;;;;;;;6.13;1.10;;;21.80;92.10;;;;;;4974942;28;20493;-69
2023/09/22 04:23:59;;;;;;;5.77;1.23;;;21.10;93.10;;;;;;4974344;28;20183;-71
2023/09/22 04:26:29;;;;;;;6.13;1.40;;;20.80;95.80;;;;;;4974978;28;20172;-68
2023/09/22 04:29:00;;;;;;;7.03;1.50;;;20.80;96.10;;;;;;4974317;28;20194;-69
2023/09/22 04:31:28;;;;;;;8.20;1.53;;;20.90;95.90;;;;;;4974013;28;20329;-68
2023/09/22 04:33:55;;;;;;;7.30;1.17;;;20.70;96.70;;;;;;4974582;28;21006;-70
2023/09/22 04:36:23;;;;;;;5.40;1.30;;;20.70;96.30;;;;;;4974665;28;20226;-70
2023/09/22 04:38:51;;;;;;;7.00;1.50;;;20.50;98.40;;;;;;4973988;28;20211;-69
2023/09/22 04:41:21;;;;;;;3.57;1.10;;;20.10;99.40;;;;;;4974363;28;20817;-72
2023/09/22 04:43:55;;;;;;;7.27;1.40;;;20.00;99.90;;;;;;4955290;29;20211;-70
2023/09/22 04:46:23;;;;;;;7.20;1.50;;;19.70;99.90;;;;;;4958545;28;20179;-69
2023/09/22 04:48:51;;;;;;;6.83;1.37;;;19.70;99.90;;;;;;4974022;28;20319;-70
2023/09/22 04:51:19;;;;;;;5.63;1.50;;;19.50;99.90;;;;;;4974193;28;20230;-69
2023/09/22 04:53:47;;;;;;;6.73;1.53;;;19.60;99.90;;;;;;4973993;28;20187;-68
2023/09/22 04:56:14;;;;;;;6.80;1.30;;;19.50;99.90;;;;;;4974110;28;20648;-69
2023/09/22 04:58:41;;;;;;;5.57;1.33;;;19.40;99.90;;;;;;4974302;28;20190;-70
2023/09/22 05:01:09;;;;;;;6.37;1.57;;;19.40;99.90;;;;;;4956342;28;20202;-69
2023/09/22 05:03:37;;;;;;;4.27;1.10;;;19.40;99.90;;;;;;4973947;28;20194;-69
2023/09/22 05:06:06;;;;;;;8.87;1.53;;;19.30;99.90;;;;;;4974143;28;20191;-69
2023/09/22 05:08:37;;;;;;;2.77;0.97;;;19.50;99.90;;;;;;4973513;28;20204;-69
2023/09/22 05:11:07;;;;;;;3.77;1.10;;;19.70;99.90;;;;;;4954895;29;20656;-69
2023/09/22 05:13:35;;;;;;;7.67;1.53;;;19.90;99.90;;;;;;4953833;28;20599;-70
2023/09/22 05:16:10;;;;;;;10.90;1.40;;;20.20;99.90;;;;;;4958987;28;20224;-69
2023/09/22 05:18:38;;;;;;;5.63;1.30;;;20.60;99.90;;;;;;4973202;28;20192;-69
2023/09/22 05:21:09;;;;;;;5.47;1.20;;;20.70;99.90;;;;;;4957479;28;20193;-69
2023/09/22 05:23:37;;;;;;;3.17;1.20;;;20.70;99.90;;;;;;4975072;28;20182;-70
2023/09/22 05:26:08;;;;;;;3.33;1.13;;;20.90;99.90;;;;;;4974787;28;20177;-70
2023/09/22 05:28:36;;;;;;;6.90;1.50;;;20.90;98.80;;;;;;4974814;28;20193;-69
2023/09/22 05:31:05;;;;;;;6.53;1.43;;;20.60;99.10;;;;;;4974795;28;20189;-69
2023/09/22 05:33:35;;;;;;;8.40;2.13;;;20.10;99.90;;;;;;4974579;28;20273;-69
2023/09/22 05:36:03;;;;;;;93.10;48.90;;;20.10;99.90;;;;;;4974785;28;20213;-68
2023/09/22 05:38:30;;;;;;;6.90;1.83;;;20.20;99.90;;;;;;4974628;28;20183;-68
2023/09/22 05:40:58;;;;;;;10.27;2.10;;;20.30;99.90;;;;;;4974530;28;20192;-69
2023/09/22 05:43:27;;;;;;;6.20;1.60;;;20.30;99.90;;;;;;4974634;28;20254;-69
2023/09/22 05:45:58;;;;;;;4.00;1.00;;;19.90;99.90;;;;;;4973910;28;20192;-69
2023/09/22 05:48:25;;;;;;;4.80;1.43;;;19.50;99.90;;;;;;4963507;28;20288;-69
2023/09/22 05:51:00;;;;;;;6.53;1.40;;;19.30;99.90;;;;;;4955885;28;20187;-68
2023/09/22 05:53:29;;;;;;;8.43;1.37;;;19.40;99.90;;;;;;4973170;28;20187;-67
2023/09/22 05:56:10;;;;;;;7.00;1.70;;;19.10;99.90;;;;;;4972766;28;20254;-69
2023/09/22 05:58:39;;;;;;;5.47;1.40;;;18.90;99.90;;;;;;4973170;28;20214;-70
2023/09/22 06:01:14;;;;;;;6.97;1.30;;;18.90;99.90;;;;;;4973336;28;20187;-68
2023/09/22 06:03:42;;;;;;;3.43;1.07;;;19.00;99.90;;;;;;4972968;28;20186;-68
2023/09/22 06:06:12;;;;;;;4.07;0.93;;;19.40;99.90;;;;;;4973219;28;20606;-69
2023/09/22 06:08:45;;;;;;;4.90;1.20;;;19.70;99.90;;;;;;4972931;28;20175;-70
2023/09/22 06:11:14;;;;;;;2.33;0.80;;;19.90;99.90;;;;;;4973541;28;20182;-69
2023/09/22 06:13:42;;;;;;;3.60;1.07;;;19.80;99.90;;;;;;4973618;28;20271;-70
2023/09/22 06:16:11;;;;;;;6.30;1.23;;;19.90;99.90;;;;;;4974119;28;20926;-69
2023/09/22 06:18:40;;;;;;;2.37;1.10;;;20.10;99.90;;;;;;4973381;28;20186;-70
2023/09/22 06:21:10;;;;;;;2.87;1.23;;;20.10;99.90;;;;;;4955729;28;20197;-68
2023/09/22 06:23:38;;;;;;;6.77;1.43;;;20.00;99.90;;;;;;4973126;28;20257;-69
2023/09/22 06:26:10;;;;;;;4.10;1.10;;;19.80;99.90;;;;;;4977091;28;20521;-69
2023/09/22 06:28:38;;;;;;;5.07;1.33;;;19.90;99.90;;;;;;4960358;28;20220;-69
2023/09/22 06:31:06;;;;;;;3.97;1.47;;;19.70;99.90;;;;;;4976406;28;20192;-68
2023/09/22 06:33:33;;;;;;;5.00;1.20;;;19.70;99.90;;;;;;4976894;28;20190;-69
2023/09/22 06:36:05;;;;;;;4.40;0.90;;;19.70;99.90;;;;;;4976632;28;20186;-67
2023/09/22 06:38:33;;;;;;;5.13;1.00;;;19.90;99.90;;;;;;4968973;28;20229;-69
2023/09/22 06:41:01;;;;;;;7.07;1.40;;;19.80;99.90;;;;;;4970327;28;20175;-66
2023/09/22 06:43:30;;;;;;;4.00;1.30;;;19.80;99.90;;;;;;4976484;28;20253;-67
2023/09/22 06:45:58;;;;;;;6.97;1.03;;;19.70;99.90;;;;;;4975853;28;20650;-68
2023/09/22 06:48:26;;;;;;;5.53;1.40;;;19.70;99.90;;;;;;4976173;28;20275;-68
2023/09/22 06:50:57;;;;;;;8.93;1.07;;;19.80;99.90;;;;;;4976699;28;20179;-69
2023/09/22 06:53:26;;;;;;;9.27;1.30;;;19.70;99.90;;;;;;4975847;28;20191;-70
2023/09/22 06:56:09;;;;;;;5.97;1.30;;;19.60;99.90;;;;;;4963919;28;20650;-67
2023/09/22 06:58:37;;;;;;;8.17;1.50;;;19.40;99.90;;;;;;4967347;28;20348;-68
2023/09/22 07:01:12;;;;;;;6.17;1.20;;;19.20;99.90;;;;;;4969458;28;20192;-68
2023/09/22 07:03:40;;;;;;;6.10;1.60;;;19.10;99.90;;;;;;4976515;28;20192;-68
2023/09/22 07:06:10;;;;;;;7.03;1.17;;;19.10;99.90;;;;;;4967631;28;20198;-69
2023/09/22 07:08:38;;;;;;;4.60;1.30;;;18.90;99.90;;;;;;4967346;28;20203;-69
2023/09/22 07:11:08;;;;;;;6.70;1.13;;;18.70;99.90;;;;;;4963764;28;20199;-69
2023/09/22 07:13:36;;;;;;;7.17;1.17;;;18.30;99.90;;;;;;4968228;28;20240;-68
2023/09/22 07:16:05;;;;;;;6.23;1.17;;;18.20;99.90;;;;;;4975824;28;20181;-68
2023/09/22 07:18:32;;;;;;;5.30;1.20;;;18.00;99.90;;;;;;4975920;28;20191;-70
2023/09/22 07:21:00;;;;;;;2.33;1.03;;;17.80;99.90;;;;;;4975125;28;20202;-69
2023/09/22 07:23:30;;;;;;;6.57;1.30;;;17.80;99.90;;;;;;4970990;28;20220;-69
2023/09/22 07:26:11;;;;;;;8.17;1.73;;;17.50;99.90;;;;;;4976055;28;20200;-67
2023/09/22 07:28:39;;;;;;;5.10;1.23;;;17.40;99.90;;;;;;4976042;28;20547;-71
2023/09/22 07:31:14;;;;;;;5.23;1.03;;;17.30;99.90;;;;;;4973691;28;20662;-70
2023/09/22 07:33:43;;;;;;;8.07;1.13;;;17.20;99.90;;;;;;4975477;28;20679;-70
2023/09/22 07:36:12;;;;;;;5.93;1.03;;;17.20;99.90;;;;;;4957929;28;20206;-68
2023/09/22 07:38:40;;;;;;;8.63;1.40;;;17.10;99.90;;;;;;4975445;28;20560;-69
2023/09/22 07:41:07;;;;;;;7.53;1.33;;;16.90;99.90;;;;;;4975636;28;20214;-69
2023/09/22 07:43:35;;;;;;;8.20;1.47;;;16.80;99.90;;;;;;4975557;28;20192;-69
2023/09/22 07:46:06;;;;;;;10.07;1.40;;;16.70;99.90;;;;;;4975334;28;20207;-68
2023/09/22 07:48:37;;;;;;;7.97;1.57;;;16.70;99.90;;;;;;4959269;28;20199;-68
2023/09/22 07:51:05;;;;;;;8.87;1.33;;;16.60;99.90;;;;;;4975338;28;20190;-68
2023/09/22 07:53:36;;;;;;;7.10;1.40;;;16.60;99.90;;;;;;4974656;28;20198;-69
2023/09/22 07:56:04;;;;;;;6.50;1.20;;;16.50;99.90;;;;;;4975374;28;20191;-69
2023/09/22 07:58:31;;;;;;;6.73;1.30;;;16.30;99.90;;;;;;4975448;28;20175;-70
2023/09/22 08:01:00;;;;;;;6.57;1.30;;;16.20;99.90;;;;;;4975170;28;20704;-69
2023/09/22 08:03:28;;;;;;;5.97;0.93;;;16.20;99.90;;;;;;4974646;28;20226;-70
2023/09/22 08:05:55;;;;;;;8.90;1.50;;;16.20;99.90;;;;;;4975234;28;20191;-69
2023/09/22 08:08:24;;;;;;;8.60;1.33;;;16.10;99.90;;;;;;4974847;28;20191;-70
2023/09/22 08:10:55;;;;;;;6.03;1.40;;;16.10;99.90;;;;;;4975181;28;20199;-69
2023/09/22 08:13:22;;;;;;;5.43;1.47;;;16.00;99.90;;;;;;4974773;28;20544;-70
2023/09/22 08:15:50;;;;;;;3.37;1.10;;;16.00;99.90;;;;;;4974467;28;20189;-69
2023/09/22 08:18:17;;;;;;;6.47;1.77;;;16.00;99.90;;;;;;4975235;28;20549;-70
2023/09/22 08:20:45;;;;;;;6.27;1.27;;;16.00;99.90;;;;;;4974956;28;20600;-70
2023/09/22 08:23:12;;;;;;;4.53;1.40;;;16.00;99.90;;;;;;4974265;28;20235;-71
2023/09/22 08:25:43;;;;;;;8.50;1.30;;;15.90;99.90;;;;;;4957683;28;20231;-68
2023/09/22 08:28:14;;;;;;;10.60;1.50;;;15.80;99.90;;;;;;4975007;28;20230;-69
2023/09/22 08:30:42;;;;;;;7.07;1.20;;;15.60;99.90;;;;;;4974455;28;20186;-70
2023/09/22 08:33:09;;;;;;;8.20;1.30;;;15.60;99.90;;;;;;4974365;28;20183;-69
2023/09/22 08:35:39;;;;;;;6.70;1.20;;;15.60;99.90;;;;;;4974727;28;20652;-68
2023/09/22 08:38:07;;;;;;;5.20;1.47;;;15.60;99.90;;;;;;4974470;28;20242;-69
2023/09/22 08:40:34;;;;;;;4.53;1.60;;;15.60;99.90;;;;;;4974992;28;20179;-70
2023/09/22 08:43:03;;;;;;;4.37;1.13;;;15.70;99.90;;;;;;4956929;28;20582;-69
2023/09/22 08:45:30;;;;;;;7.13;1.63;;;15.80;99.90;;;;;;4974426;28;20175;-69
2023/09/22 08:47:58;;;;;;;9.37;2.13;;;15.90;99.90;;;;;;4973579;28;20186;-69
2023/09/22 08:50:26;;;;;;;5.03;1.10;;;15.90;99.90;;;;;;4957478;28;20179;-70
2023/09/22 08:52:53;;;;;;;6.07;1.50;;;16.00;99.90;;;;;;4973925;28;20274;-69
2023/09/22 08:55:23;;;;;;;7.03;1.20;;;15.90;99.90;;;;;;4974413;28;20202;-72
2023/09/22 08:57:53;;;;;;;5.57;1.40;;;15.90;99.90;;;;;;4974697;28;20180;-71
2023/09/22 09:00:26;;;;;;;4.83;1.43;;;15.90;99.90;;;;;;4956986;28;20223;-71
2023/09/22 09:02:58;;;;;;;8.77;1.90;;;15.80;99.90;;;;;;4973985;28;20226;-70
2023/09/22 09:05:33;;;;;;;7.10;1.70;;;15.80;99.90;;;;;;4957179;28;20230;-69
2023/09/22 09:08:23;;;;;;;7.50;1.80;;;15.90;99.90;;;;;;4956846;28;20194;-70
2023/09/22 09:10:51;;;;;;;2.80;1.17;;;15.90;99.90;;;;;;4974026;28;20245;-71
2023/09/22 09:13:23;;;;;;;2.57;1.10;;;15.90;99.90;;;;;;4957567;28;20230;-70
2023/09/22 09:16:01;;;;;;;4.57;1.47;;;15.80;99.90;;;;;;4975156;28;20715;-70
2023/09/22 09:18:29;;;;;;;5.93;1.20;;;15.70;99.90;;;;;;4957892;28;20329;-70
2023/09/22 09:21:15;;;;;;;5.73;1.50;;;15.60;99.90;;;;;;4974223;28;20569;-70
2023/09/22 09:23:53;;;;;;;5.00;1.30;;;15.50;99.90;;;;;;4975145;28;20573;-70
2023/09/22 09:26:31;;;;;;;5.70;1.20;;;15.50;99.90;;;;;;4958499;28;20175;-71
2023/09/22 09:29:05;;;;;;;3.40;1.80;;;15.40;99.90;;;;;;4975022;28;20191;-70
2023/09/22 09:31:51;;;;;;;7.67;1.60;;;15.30;99.90;;;;;;4957035;28;20230;-70
2023/09/22 09:34:18;;;;;;;3.53;1.40;;;15.20;99.90;;;;;;4974814;28;20189;-68
2023/09/22 09:36:46;;;;;;;4.40;1.57;;;15.10;99.90;;;;;;4955833;28;20193;-70
2023/09/22 09:39:14;;;;;;;5.93;1.60;;;15.00;99.90;;;;;;4955882;28;20184;-70
2023/09/22 09:41:44;;;;;;;5.13;2.10;;;15.00;99.90;;;;;;4965364;28;20218;-69
2023/09/22 09:44:17;;;;;;;5.60;1.60;;;15.00;99.90;;;;;;4974352;28;20217;-68
2023/09/22 09:46:45;;;;;;;6.27;1.67;;;14.90;99.90;;;;;;4975166;28;20667;-70
2023/09/22 09:49:14;;;;;;;2.70;1.30;;;14.90;99.90;;;;;;4975170;28;20652;-70
2023/09/22 09:51:46;;;;;;;5.37;1.37;;;14.90;99.90;;;;;;4974870;28;20229;-70
2023/09/22 09:54:18;;;;;;;5.70;1.33;;;14.80;99.90;;;;;;4974731;28;20183;-70
2023/09/22 09:56:46;;;;;;;6.33;1.43;;;14.80;99.90;;;;;;4974618;28;20178;-69
2023/09/22 09:59:15;;;;;;;2.67;1.60;;;14.90;99.90;;;;;;4974663;28;20180;-69
2023/09/22 10:01:43;;;;;;;3.00;1.67;;;14.90;99.90;;;;;;4974928;28;20738;-70
2023/09/22 10:04:19;;;;;;;6.40;1.97;;;14.90;99.90;;;;;;4974943;28;20648;-71
2023/09/22 10:06:48;;;;;;;5.43;2.00;;;14.90;99.90;;;;;;4958511;28;20186;-69
2023/09/22 10:09:17;;;;;;;5.10;1.70;;;14.90;99.90;;;;;;4974702;28;20532;-69
2023/09/22 10:11:45;;;;;;;3.60;1.20;;;15.00;99.90;;;;;;4973429;28;20193;-70
2023/09/22 10:14:51;;;;;;;5.03;1.80;;;15.00;99.90;;;;;;4974369;28;20233;-69
2023/09/22 10:17:24;;;;;;;6.20;1.90;;;15.00;99.90;;;;;;4970348;28;20199;-69
2023/09/22 10:19:53;;;;;;;5.13;1.97;;;14.90;99.90;;;;;;4974586;28;20182;-69
2023/09/22 10:22:22;;;;;;;4.90;2.07;;;14.80;99.90;;;;;;4974606;28;20211;-70
2023/09/22 10:25:09;;;;;;;4.63;1.87;;;14.80;99.90;;;;;;4974289;28;20198;-70
2023/09/22 10:28:16;;;;;;;7.03;1.77;;;14.70;99.90;;;;;;4876672;29;20573;-69
2023/09/22 10:30:46;;;;;;;4.90;1.60;;;14.60;99.90;;;;;;4877382;29;20720;-69
2023/09/22 10:33:21;;;;;;;6.80;2.40;;;14.40;99.90;;;;;;4957104;28;20195;-69
2023/09/22 10:35:49;;;;;;;5.77;1.50;;;14.30;99.90;;;;;;4973991;28;20226;-69
2023/09/22 10:38:20;;;;;;;9.67;2.07;;;14.30;99.90;;;;;;4941186;28;20184;-69
2023/09/22 10:41:03;;;;;;;2.57;1.70;;;14.20;99.90;;;;;;4974247;28;20211;-69
2023/09/22 10:43:36;;;;;;;7.27;1.83;;;14.10;99.90;;;;;;4974285;28;20296;-70
2023/09/22 10:46:04;;;;;;;6.40;2.50;;;14.00;99.90;;;;;;4974035;28;20683;-69
2023/09/22 10:48:35;;;;;;;3.70;1.50;;;14.00;99.90;;;;;;4974148;28;20222;-68
2023/09/22 10:51:05;;;;;;;5.00;1.70;;;13.90;99.90;;;;;;4955056;29;20631;-69
2023/09/22 10:53:39;;;;;;;4.77;1.67;;;14.00;99.90;;;;;;4954763;28;20195;-70
2023/09/22 10:56:07;;;;;;;4.03;1.70;;;13.80;99.90;;;;;;4957117;28;20203;-69
2023/09/22 10:58:34;;;;;;;4.67;1.40;;;13.80;99.90;;;;;;4956785;28;20190;-69
2023/09/22 11:01:08;;;;;;;2.77;1.50;;;13.70;99.90;;;;;;4972737;28;20569;-68
2023/09/22 11:03:53;;;;;;;4.47;1.53;;;13.70;99.90;;;;;;4972482;28;20199;-68
2023/09/22 11:06:21;;;;;;;4.60;1.80;;;13.60;99.90;;;;;;4973715;28;20237;-70
2023/09/22 11:08:53;;;;;;;4.47;1.50;;;13.70;99.90;;;;;;4974106;28;20170;-69
2023/09/22 11:11:21;;;;;;;7.23;1.90;;;13.70;99.90;;;;;;4975473;28;20644;-69
2023/09/22 11:13:58;;;;;;;4.90;1.73;;;13.70;99.90;;;;;;4976119;28;20233;-69
2023/09/22 11:16:27;;;;;;;5.77;2.13;;;13.60;99.90;;;;;;4977209;28;20266;-70
2023/09/22 11:19:08;;;;;;;7.57;1.60;;;13.60;99.90;;;;;;4977062;28;20270;-70
2023/09/22 11:21:44;;;;;;;3.83;1.60;;;13.60;99.90;;;;;;4959748;28;20222;-69
2023/09/22 11:24:12;;;;;;;4.03;1.90;;;13.60;99.90;;;;;;4977215;28;20703;-71
2023/09/22 11:26:44;;;;;;;9.10;2.10;;;13.60;99.90;;;;;;4976596;28;20182;-68
2023/09/22 11:29:17;;;;;;;5.37;2.10;;;13.60;99.90;;;;;;4976406;28;20201;-70
2023/09/22 11:31:52;;;;;;;3.93;2.00;;;13.60;99.90;;;;;;4977137;28;20530;-68
2023/09/22 11:34:22;;;;;;;6.83;1.97;;;13.60;99.90;;;;;;4976640;28;20186;-69
2023/09/22 11:36:51;;;;;;;5.00;2.30;;;13.60;99.90;;;;;;4976559;28;20194;-67
2023/09/22 11:39:30;;;;;;;6.07;2.37;;;13.60;99.90;;;;;;4976724;28;20191;-67
2023/09/22 11:41:58;;;;;;;8.73;2.83;;;13.60;99.90;;;;;;4976604;28;20684;-71
2023/09/22 11:44:26;;;;;;;6.53;3.00;;;13.60;99.90;;;;;;4976352;28;20282;-69
2023/09/22 11:46:55;;;;;;;8.77;3.73;;;13.60;99.90;;;;;;4959167;28;20206;-69
2023/09/22 11:49:34;;;;;;;11.87;3.90;;;13.50;99.90;;;;;;4959338;28;20267;-67
2023/09/22 11:52:03;;;;;;;7.27;2.97;;;13.50;99.90;;;;;;4976296;28;20221;-67
2023/09/22 11:54:34;;;;;;;7.27;2.70;;;13.50;99.90;;;;;;4959003;28;20605;-68
2023/09/22 11:57:03;;;;;;;6.87;2.80;;;13.50;99.90;;;;;;4959146;28;20234;-67
2023/09/22 11:59:34;;;;;;;4.47;2.70;;;13.40;99.90;;;;;;4975742;28;20687;-69
2023/09/22 12:02:05;;;;;;;8.70;3.43;;;13.40;99.90;;;;;;4976134;28;20225;-69
2023/09/22 12:04:37;;;;;;;8.27;2.80;;;13.30;99.90;;;;;;4976407;28;20271;-70
2023/09/22 12:07:05;;;;;;;7.00;3.13;;;13.30;99.90;;;;;;4975922;28;20226;-68
2023/09/22 12:09:33;;;;;;;5.93;3.27;;;13.20;99.90;;;;;;4975644;28;20214;-68
2023/09/22 12:12:01;;;;;;;7.07;3.23;;;13.20;99.90;;;;;;4959347;28;20183;-68
2023/09/22 12:14:29;;;;;;;9.23;3.30;;;13.10;99.90;;;;;;4958577;28;20696;-68
2023/09/22 12:16:57;;;;;;;7.90;3.67;;;13.10;99.90;;;;;;4976308;28;20197;-68
2023/09/22 12:19:26;;;;;;;6.37;3.30;;;13.00;99.90;;;;;;4975862;28;20190;-68
2023/09/22 12:21:54;;;;;;;8.47;3.10;;;12.90;99.90;;;;;;4974814;28;20257;-68
2023/09/22 12:24:22;;;;;;;7.43;2.83;;;12.90;99.90;;;;;;4975848;28;20194;-67
2023/09/22 12:26:50;;;;;;;13.57;3.20;;;12.80;99.90;;;;;;4975900;28;20644;-68
2023/09/22 12:29:20;;;;;;;6.53;2.97;;;12.80;99.90;;;;;;4975633;28;20561;-69
2023/09/22 12:31:48;;;;;;;6.63;3.00;;;12.70;99.90;;;;;;4975420;28;20206;-67
2023/09/22 12:34:19;;;;;;;5.93;2.77;;;12.70;99.90;;;;;;4958179;28;20557;-67
2023/09/22 12:36:47;;;;;;;6.80;2.50;;;12.60;99.90;;;;;;4958055;28;20648;-66
2023/09/22 12:39:16;;;;;;;6.63;2.90;;;12.70;99.90;;;;;;4975087;28;20190;-69
2023/09/22 12:41:44;;;;;;;9.97;3.07;;;12.60;99.90;;;;;;4975355;28;20206;-67
2023/09/22 12:44:12;;;;;;;10.70;3.10;;;12.60;99.90;;;;;;4975146;28;20273;-67
2023/09/22 12:46:40;;;;;;;4.23;2.47;;;12.50;99.90;;;;;;4975477;28;20278;-68
2023/09/22 12:49:07;;;;;;;8.07;2.97;;;12.50;99.90;;;;;;4975212;28;20177;-67
2023/09/22 12:51:35;;;;;;;5.80;2.90;;;12.50;99.90;;;;;;4975222;28;20663;-67
2023/09/22 12:54:03;;;;;;;5.23;2.40;;;12.60;99.90;;;;;;4975192;28;20179;-67
2023/09/22 12:56:34;;;;;;;8.10;2.50;;;12.60;99.90;;;;;;4975340;28;20190;-67
2023/09/22 12:59:03;;;;;;;5.40;2.63;;;12.60;99.90;;;;;;4975511;28;20204;-69
2023/09/22 13:01:31;;;;;;;6.17;2.90;;;12.60;99.90;;;;;;4975214;28;20201;-69